Time;durP1;ratioP1;P1;durP2;ratioP2;P2;SDS_P1;SDS_P2;PMS_P1;PMS_P2;Temp;Humidity;BMP_temperature;BMP_pressure;BME280_temperature;BME280_humidity;BME280_pressure;Samples;Min_cycle;Max_cycle;Signal;HPM_P1;HPM_P2
2022/07/17 00:02:12;;;;;;;3.85;3.55;;;22.60;49.70;;;;;;4815254;29;20113;-75
2022/07/17 00:04:38;;;;;;;4.50;4.10;;;22.50;49.60;;;;;;4814885;29;20527;-75
2022/07/17 00:07:04;;;;;;;4.57;3.90;;;22.50;49.80;;;;;;4814696;29;20103;-76
2022/07/17 00:09:30;;;;;;;3.58;3.28;;;22.40;49.70;;;;;;4813747;29;20062;-76
2022/07/17 00:11:56;;;;;;;4.00;3.70;;;22.40;49.80;;;;;;4812731;29;20047;-75
2022/07/17 00:14:22;;;;;;;4.28;3.53;;;22.30;49.80;;;;;;4797998;29;20589;-77
2022/07/17 00:16:48;;;;;;;4.20;3.80;;;22.30;49.90;;;;;;4813957;29;20045;-76
2022/07/17 00:19:14;;;;;;;4.20;3.70;;;22.30;50.10;;;;;;4813615;29;20042;-76
2022/07/17 00:21:40;;;;;;;3.47;3.17;;;22.20;50.00;;;;;;4782708;29;20038;-77
2022/07/17 00:24:06;;;;;;;4.95;3.83;;;22.20;50.10;;;;;;4807722;29;20038;-77
2022/07/17 00:26:33;;;;;;;4.07;3.67;;;22.10;50.10;;;;;;4812335;29;20041;-77
2022/07/17 00:28:59;;;;;;;3.80;3.33;;;22.10;50.20;;;;;;4796661;29;20108;-76
2022/07/17 00:31:25;;;;;;;4.30;3.90;;;22.00;50.10;;;;;;4813032;29;20062;-76
2022/07/17 00:33:51;;;;;;;4.03;3.63;;;22.00;50.30;;;;;;4812866;29;20263;-76
2022/07/17 00:36:17;;;;;;;4.25;3.70;;;21.90;50.20;;;;;;4812474;29;20976;-76
2022/07/17 00:38:43;;;;;;;4.53;3.88;;;21.90;50.30;;;;;;4811096;29;20037;-77
2022/07/17 00:41:09;;;;;;;3.40;3.05;;;21.90;50.50;;;;;;4811743;29;20034;-76
2022/07/17 00:43:35;;;;;;;4.05;3.30;;;21.80;50.40;;;;;;4812707;29;20034;-78
2022/07/17 00:46:02;;;;;;;4.72;3.40;;;21.80;50.50;;;;;;4796622;29;20034;-78
2022/07/17 00:48:28;;;;;;;3.88;3.47;;;21.80;50.60;;;;;;4810589;29;20039;-78
2022/07/17 00:50:56;;;;;;;4.15;3.75;;;21.70;50.60;;;;;;4812681;29;20046;-78
2022/07/17 00:53:22;;;;;;;3.97;3.58;;;21.70;50.70;;;;;;4807006;29;20139;-78
2022/07/17 00:55:48;;;;;;;3.97;3.38;;;21.70;50.80;;;;;;4812302;29;20049;-78
2022/07/17 00:58:21;;;;;;;3.80;3.50;;;21.60;50.70;;;;;;4812499;29;20114;-77
2022/07/17 01:00:49;;;;;;;3.58;3.28;;;21.60;50.90;;;;;;4813234;29;20133;-77
2022/07/17 01:03:15;;;;;;;3.72;3.42;;;21.50;50.70;;;;;;4813327;29;20403;-77
2022/07/17 01:05:41;;;;;;;3.50;3.20;;;21.50;50.90;;;;;;4795719;29;20437;-77
2022/07/17 01:08:07;;;;;;;3.95;3.65;;;21.50;51.00;;;;;;4812430;29;20103;-77
2022/07/17 01:10:33;;;;;;;3.65;3.30;;;21.40;50.80;;;;;;4809994;29;20051;-76
2022/07/17 01:13:00;;;;;;;6.43;3.70;;;21.40;51.00;;;;;;4798135;29;20068;-76
2022/07/17 01:15:26;;;;;;;3.60;3.17;;;21.30;50.90;;;;;;4814355;29;20479;-76
2022/07/17 01:17:52;;;;;;;4.15;3.83;;;21.30;51.00;;;;;;4813539;29;20030;-76
2022/07/17 01:20:18;;;;;;;4.75;3.58;;;21.30;51.10;;;;;;4811777;29;20030;-75
2022/07/17 01:22:48;;;;;;;3.17;2.95;;;21.30;51.20;;;;;;4813965;29;20066;-76
2022/07/17 01:25:15;;;;;;;3.22;2.92;;;21.20;51.20;;;;;;4787948;29;20146;-77
2022/07/17 01:27:41;;;;;;;4.03;3.65;;;21.20;51.30;;;;;;4798300;29;20104;-77
2022/07/17 01:30:08;;;;;;;3.47;3.15;;;21.20;51.30;;;;;;4815948;29;20046;-75
2022/07/17 01:32:37;;;;;;;3.20;3.00;;;21.10;51.30;;;;;;4812263;29;20065;-77
2022/07/17 01:35:04;;;;;;;4.15;3.40;;;21.10;51.30;;;;;;4813687;29;20453;-77
2022/07/17 01:37:31;;;;;;;4.22;3.67;;;21.00;51.30;;;;;;4814890;29;20141;-77
2022/07/17 01:39:57;;;;;;;3.88;3.08;;;21.10;51.60;;;;;;4812262;29;20057;-77
2022/07/17 01:42:24;;;;;;;3.67;3.38;;;21.00;51.50;;;;;;4814649;29;20034;-77
2022/07/17 01:44:50;;;;;;;3.17;2.90;;;21.00;51.50;;;;;;4814307;29;20026;-76
2022/07/17 01:47:17;;;;;;;3.60;3.30;;;21.00;51.60;;;;;;4785996;29;20049;-77
2022/07/17 01:49:47;;;;;;;3.63;3.33;;;20.90;51.50;;;;;;4820915;29;20411;-76
2022/07/17 01:52:13;;;;;;;3.55;3.15;;;20.90;51.60;;;;;;4820593;29;20288;-76
2022/07/17 01:54:41;;;;;;;4.82;4.15;;;20.80;51.50;;;;;;4796039;29;20134;-76
2022/07/17 01:57:07;;;;;;;3.10;2.80;;;20.80;51.60;;;;;;4822557;29;20115;-77
2022/07/17 01:59:33;;;;;;;3.20;2.88;;;20.80;51.70;;;;;;4819933;29;20045;-76
2022/07/17 02:01:59;;;;;;;3.35;3.05;;;20.80;51.80;;;;;;4816641;29;20030;-76
2022/07/17 02:04:25;;;;;;;4.18;3.22;;;20.70;51.70;;;;;;4814114;29;20118;-76
2022/07/17 02:06:54;;;;;;;3.58;3.20;;;20.70;51.80;;;;;;4818799;29;20030;-77
2022/07/17 02:09:21;;;;;;;3.47;3.17;;;20.70;51.90;;;;;;4802098;29;20070;-79
2022/07/17 02:11:46;;;;;;;3.85;3.53;;;20.70;51.90;;;;;;4817491;29;20027;-78
2022/07/17 02:14:13;;;;;;;3.35;3.05;;;20.70;52.00;;;;;;4817957;29;20037;-78
2022/07/17 02:16:38;;;;;;;3.45;3.15;;;20.60;51.80;;;;;;4818472;29;20448;-78
2022/07/17 02:19:04;;;;;;;3.13;2.83;;;20.60;51.90;;;;;;4818746;29;20226;-76
2022/07/17 02:21:30;;;;;;;2.58;2.38;;;20.60;52.00;;;;;;4819585;29;20137;-78
2022/07/17 02:23:56;;;;;;;3.38;3.00;;;20.60;52.10;;;;;;4820801;29;20045;-77
2022/07/17 02:26:22;;;;;;;3.08;2.88;;;20.50;51.90;;;;;;4815741;29;20110;-78
2022/07/17 02:28:48;;;;;;;4.63;3.42;;;20.50;52.00;;;;;;4823512;29;20038;-77
2022/07/17 02:31:14;;;;;;;4.05;2.58;;;20.50;52.10;;;;;;4822496;29;20038;-76
2022/07/17 02:33:40;;;;;;;3.92;2.83;;;20.50;52.10;;;;;;4820054;29;20065;-76
2022/07/17 02:36:06;;;;;;;3.38;2.90;;;20.50;52.20;;;;;;4817739;29;20046;-79
2022/07/17 02:38:33;;;;;;;3.17;2.88;;;20.40;52.10;;;;;;4816592;29;20027;-79
2022/07/17 02:40:59;;;;;;;5.13;3.05;;;20.40;52.10;;;;;;4815743;29;20038;-77
2022/07/17 02:43:25;;;;;;;4.05;2.88;;;20.40;52.20;;;;;;4815905;29;20044;-78
2022/07/17 02:45:51;;;;;;;3.13;2.83;;;20.40;52.30;;;;;;4815065;29;20034;-78
2022/07/17 02:48:17;;;;;;;3.03;2.80;;;20.30;52.10;;;;;;4814056;29;20543;-78
2022/07/17 02:50:42;;;;;;;3.08;2.75;;;20.30;52.20;;;;;;4815739;29;20091;-77
2022/07/17 02:53:08;;;;;;;2.80;2.60;;;20.30;52.30;;;;;;4816005;29;20029;-76
2022/07/17 02:55:34;;;;;;;3.45;3.13;;;20.20;52.20;;;;;;4814668;29;20038;-78
2022/07/17 02:58:00;;;;;;;2.50;2.30;;;20.20;52.30;;;;;;4809809;29;20800;-77
2022/07/17 03:00:26;;;;;;;3.28;2.65;;;20.20;52.40;;;;;;4816392;29;20033;-78
2022/07/17 03:02:53;;;;;;;3.17;2.72;;;20.20;52.50;;;;;;4816070;29;20034;-76
2022/07/17 03:05:19;;;;;;;4.18;2.85;;;20.10;52.30;;;;;;4816800;29;20425;-77
2022/07/17 03:07:45;;;;;;;2.80;2.60;;;20.10;52.40;;;;;;4817698;29;20045;-76
2022/07/17 03:10:12;;;;;;;3.13;2.90;;;20.10;52.50;;;;;;4815716;29;20068;-77
2022/07/17 03:12:38;;;;;;;3.92;3.05;;;20.00;52.40;;;;;;4817532;29;20521;-77
2022/07/17 03:15:05;;;;;;;3.28;2.90;;;20.00;52.50;;;;;;4818193;29;20539;-76
2022/07/17 03:17:31;;;;;;;3.22;2.92;;;20.00;52.50;;;;;;4817106;29;20030;-77
2022/07/17 03:19:57;;;;;;;2.67;2.47;;;19.90;52.40;;;;;;4815763;29;20102;-77
2022/07/17 03:22:23;;;;;;;2.95;2.70;;;19.90;52.40;;;;;;4816880;29;20034;-78
2022/07/17 03:24:49;;;;;;;2.90;2.60;;;19.90;52.50;;;;;;4816726;29;20042;-77
2022/07/17 03:27:15;;;;;;;3.42;2.47;;;19.90;52.70;;;;;;4812791;29;20048;-77
2022/07/17 03:29:41;;;;;;;4.90;3.42;;;19.80;52.60;;;;;;4814337;29;20038;-78
2022/07/17 03:32:07;;;;;;;3.13;2.90;;;19.80;52.60;;;;;;4816719;29;20053;-77
2022/07/17 03:34:33;;;;;;;2.83;2.60;;;19.70;52.50;;;;;;4818508;29;20114;-79
2022/07/17 03:36:59;;;;;;;3.25;2.90;;;19.70;52.60;;;;;;4815048;29;20074;-78
2022/07/17 03:39:25;;;;;;;3.22;2.92;;;19.70;52.70;;;;;;4816077;29;20041;-78
2022/07/17 03:41:51;;;;;;;3.08;2.78;;;19.70;52.80;;;;;;4815778;29;20034;-78
2022/07/17 03:44:17;;;;;;;3.20;2.90;;;19.60;52.70;;;;;;4816573;29;20034;-78
2022/07/17 03:46:43;;;;;;;3.22;2.85;;;19.60;52.80;;;;;;4816756;29;20069;-78
2022/07/17 03:49:10;;;;;;;3.22;2.92;;;19.60;52.90;;;;;;4814597;29;20038;-77
2022/07/17 03:51:36;;;;;;;3.20;2.60;;;19.60;52.90;;;;;;4816212;29;20129;-77
2022/07/17 03:54:02;;;;;;;2.95;2.67;;;19.50;52.80;;;;;;4816086;29;20463;-79
2022/07/17 03:56:28;;;;;;;4.00;2.83;;;19.50;52.90;;;;;;4814644;29;20612;-79
2022/07/17 03:58:54;;;;;;;3.63;2.80;;;19.50;52.90;;;;;;4810024;29;20034;-79
2022/07/17 04:01:20;;;;;;;3.15;2.85;;;19.50;53.00;;;;;;4800292;29;20715;-78
2022/07/17 04:03:45;;;;;;;2.80;2.60;;;19.40;52.90;;;;;;4816012;29;20080;-78
2022/07/17 04:06:11;;;;;;;2.70;2.50;;;19.40;53.00;;;;;;4816040;29;20046;-78
2022/07/17 04:08:37;;;;;;;4.15;3.30;;;19.40;53.00;;;;;;4799705;29;20038;-79
2022/07/17 04:11:04;;;;;;;3.45;3.15;;;19.30;52.90;;;;;;4797122;29;20050;-77
2022/07/17 04:13:30;;;;;;;3.20;2.88;;;19.30;53.00;;;;;;4815076;29;20027;-78
2022/07/17 04:15:56;;;;;;;2.85;2.47;;;19.30;53.10;;;;;;4815441;29;20240;-79
2022/07/17 04:18:24;;;;;;;3.20;2.90;;;19.30;53.10;;;;;;4815620;29;20030;-80
2022/07/17 04:20:52;;;;;;;4.18;2.92;;;19.20;53.00;;;;;;4815115;29;20090;-78
2022/07/17 04:23:18;;;;;;;2.97;2.65;;;19.20;53.00;;;;;;4814828;29;20038;-79
2022/07/17 04:25:44;;;;;;;3.70;2.22;;;19.20;53.10;;;;;;4814134;29;20121;-78
2022/07/17 04:28:11;;;;;;;2.80;2.60;;;19.20;53.20;;;;;;4808285;29;20042;-78
2022/07/17 04:30:37;;;;;;;3.80;2.88;;;19.10;53.00;;;;;;4798249;29;20045;-78
2022/07/17 04:33:03;;;;;;;3.90;2.75;;;19.10;53.10;;;;;;4798842;29;20053;-79
2022/07/17 04:35:29;;;;;;;4.22;3.20;;;19.10;53.20;;;;;;4814425;29;20048;-78
2022/07/17 04:37:55;;;;;;;3.30;2.65;;;19.10;53.20;;;;;;4814385;29;20574;-79
2022/07/17 04:40:22;;;;;;;3.78;3.13;;;19.10;53.20;;;;;;4813932;29;20121;-78
2022/07/17 04:42:47;;;;;;;3.05;2.72;;;19.00;53.10;;;;;;4814489;29;20042;-79
2022/07/17 04:45:14;;;;;;;3.55;2.58;;;19.00;53.20;;;;;;4814952;29;20388;-79
2022/07/17 04:47:40;;;;;;;4.30;3.42;;;19.00;53.10;;;;;;4810498;29;20198;-78
2022/07/17 04:50:07;;;;;;;2.72;2.50;;;19.00;53.20;;;;;;4812443;29;20069;-79
2022/07/17 04:52:33;;;;;;;4.30;2.60;;;19.00;53.20;;;;;;4797860;29;20093;-79
2022/07/17 04:54:59;;;;;;;4.32;2.88;;;19.00;53.20;;;;;;4811294;29;20480;-79
2022/07/17 04:57:25;;;;;;;3.08;2.78;;;19.00;53.30;;;;;;4813684;29;20038;-78
2022/07/17 04:59:51;;;;;;;3.45;3.05;;;19.00;53.30;;;;;;4806470;29;20045;-78
2022/07/17 05:02:17;;;;;;;3.80;2.63;;;19.00;53.30;;;;;;4813934;29;20042;-78
2022/07/17 05:04:43;;;;;;;2.97;2.38;;;19.00;53.30;;;;;;4813139;29;20035;-78
2022/07/17 05:07:09;;;;;;;2.95;2.47;;;19.00;53.30;;;;;;4797208;29;20316;-79
2022/07/17 05:09:35;;;;;;;3.08;2.72;;;19.00;53.30;;;;;;4812316;29;20210;-78
2022/07/17 05:12:01;;;;;;;4.65;2.45;;;19.00;53.30;;;;;;4813792;29;20195;-78
2022/07/17 05:14:27;;;;;;;3.28;2.40;;;19.00;53.30;;;;;;4813962;29;20049;-78
2022/07/17 05:16:53;;;;;;;2.75;2.38;;;19.10;53.40;;;;;;4812885;29;20030;-78
2022/07/17 05:19:19;;;;;;;2.85;2.30;;;19.10;53.40;;;;;;4813503;29;20051;-77
2022/07/17 05:21:44;;;;;;;6.60;3.08;;;19.10;53.40;;;;;;4814249;29;20502;-77
2022/07/17 05:24:10;;;;;;;3.00;2.65;;;19.20;53.50;;;;;;4811361;29;20046;-77
2022/07/17 05:26:36;;;;;;;3.45;3.15;;;19.30;53.60;;;;;;4813980;29;20959;-78
2022/07/17 05:29:02;;;;;;;4.35;2.60;;;19.30;53.50;;;;;;4813377;29;20037;-78
2022/07/17 05:31:28;;;;;;;2.47;2.28;;;19.40;53.60;;;;;;4807794;29;20046;-78
2022/07/17 05:33:54;;;;;;;2.40;2.20;;;19.40;53.50;;;;;;4816106;29;20509;-79
2022/07/17 05:36:20;;;;;;;3.72;2.70;;;19.50;53.60;;;;;;4813395;29;20049;-77
2022/07/17 05:38:46;;;;;;;3.33;2.22;;;19.50;53.50;;;;;;4812674;29;20026;-76
2022/07/17 05:41:12;;;;;;;4.53;2.85;;;19.60;53.50;;;;;;4795927;29;20026;-78
2022/07/17 05:43:38;;;;;;;2.50;2.30;;;19.70;53.60;;;;;;4810772;29;20110;-80
2022/07/17 05:46:04;;;;;;;3.15;2.50;;;19.80;53.70;;;;;;4814914;29;20030;-81
2022/07/17 05:48:31;;;;;;;2.90;2.60;;;19.90;53.70;;;;;;4812949;29;20026;-83
2022/07/17 05:50:57;;;;;;;2.50;2.30;;;20.00;53.70;;;;;;4797309;29;20095;-80
2022/07/17 05:53:23;;;;;;;3.72;2.63;;;20.20;53.90;;;;;;4813160;29;20046;-79
2022/07/17 05:55:49;;;;;;;3.58;2.67;;;20.30;53.80;;;;;;4797245;29;20038;-80
2022/07/17 05:58:16;;;;;;;2.75;2.15;;;20.40;53.80;;;;;;4812889;29;20058;-78
2022/07/17 06:00:41;;;;;;;2.75;2.22;;;20.60;53.90;;;;;;4806453;29;20129;-78
2022/07/17 06:03:07;;;;;;;2.30;1.92;;;20.80;53.90;;;;;;4812000;29;20046;-78
2022/07/17 06:05:33;;;;;;;2.67;2.10;;;21.00;54.10;;;;;;4813922;29;20039;-77
2022/07/17 06:08:00;;;;;;;3.47;2.22;;;21.10;54.00;;;;;;4803092;29;20038;-78
2022/07/17 06:10:26;;;;;;;9.52;4.68;;;21.30;54.00;;;;;;4817982;29;20637;-78
2022/07/17 06:12:53;;;;;;;12.75;5.15;;;21.50;54.20;;;;;;4828485;29;20037;-78
2022/07/17 06:15:20;;;;;;;9.50;4.45;;;21.60;54.50;;;;;;4834271;29;20042;-78
2022/07/17 06:17:46;;;;;;;8.82;4.88;;;21.70;55.10;;;;;;4833438;29;20053;-78
2022/07/17 06:20:13;;;;;;;4.28;2.97;;;21.80;55.30;;;;;;4828526;29;20483;-78
2022/07/17 06:22:40;;;;;;;6.85;3.63;;;22.00;55.70;;;;;;4815089;29;20068;-78
2022/07/17 06:25:06;;;;;;;3.60;2.80;;;22.10;55.80;;;;;;4813978;29;20097;-79
2022/07/17 06:27:32;;;;;;;5.18;2.70;;;22.40;56.00;;;;;;4812891;29;20030;-79
2022/07/17 06:29:58;;;;;;;3.10;1.92;;;22.70;56.00;;;;;;4797698;29;20046;-79
2022/07/17 06:32:26;;;;;;;3.22;2.30;;;23.00;55.90;;;;;;4806026;29;20046;-79
2022/07/17 06:34:52;;;;;;;4.75;2.17;;;23.20;55.60;;;;;;4812285;29;21283;-79
2022/07/17 06:37:18;;;;;;;3.60;2.28;;;23.50;55.50;;;;;;4796496;29;20129;-79
2022/07/17 06:39:44;;;;;;;3.92;1.77;;;23.80;55.30;;;;;;4813222;29;20045;-80
2022/07/17 06:42:10;;;;;;;7.97;1.77;;;24.10;55.20;;;;;;4811667;29;20038;-78
2022/07/17 06:44:37;;;;;;;2.67;1.50;;;24.40;55.10;;;;;;4813611;29;20026;-78
2022/07/17 06:47:03;;;;;;;4.70;2.15;;;24.60;54.80;;;;;;4812517;29;20033;-75
2022/07/17 06:49:29;;;;;;;3.05;2.00;;;24.90;54.60;;;;;;4811827;29;20034;-78
2022/07/17 06:51:55;;;;;;;4.53;1.98;;;25.20;54.20;;;;;;4814979;29;20653;-77
2022/07/17 06:54:23;;;;;;;2.58;1.60;;;25.50;53.70;;;;;;4815536;29;20037;-80
2022/07/17 06:56:50;;;;;;;3.00;1.75;;;25.80;53.30;;;;;;4816379;29;20480;-80
2022/07/17 06:59:16;;;;;;;3.67;1.77;;;26.10;52.80;;;;;;4815545;29;20042;-79
2022/07/17 07:01:42;;;;;;;16.60;2.30;;;26.30;52.20;;;;;;4810487;29;20065;-78
2022/07/17 07:04:08;;;;;;;2.85;1.63;;;26.60;51.80;;;;;;4816400;29;20042;-80
2022/07/17 07:06:35;;;;;;;3.33;2.10;;;26.90;51.40;;;;;;4799017;29;20046;-78
2022/07/17 07:09:01;;;;;;;3.42;1.50;;;27.10;50.80;;;;;;4814575;29;20349;-79
2022/07/17 07:11:27;;;;;;;2.78;1.77;;;27.40;50.40;;;;;;4812270;29;20066;-80
2022/07/17 07:13:52;;;;;;;4.50;1.65;;;27.70;50.00;;;;;;4815266;29;20082;-80
2022/07/17 07:16:18;;;;;;;3.13;1.73;;;27.90;49.50;;;;;;4811809;29;20026;-77
2022/07/17 07:18:44;;;;;;;5.70;1.88;;;28.20;49.10;;;;;;4814470;29;20342;-80
2022/07/17 07:21:10;;;;;;;4.25;1.63;;;28.50;48.80;;;;;;4813737;29;20643;-77
2022/07/17 07:23:36;;;;;;;2.67;1.70;;;28.70;48.20;;;;;;4813477;29;20027;-79
2022/07/17 07:26:02;;;;;;;2.42;1.58;;;29.10;47.70;;;;;;4814001;29;20034;-76
2022/07/17 07:28:28;;;;;;;2.13;1.65;;;29.40;47.10;;;;;;4816732;29;20412;-76
2022/07/17 07:30:54;;;;;;;4.72;1.73;;;29.70;46.50;;;;;;4815461;29;20592;-77
2022/07/17 07:33:20;;;;;;;3.22;1.98;;;29.90;46.20;;;;;;4798419;29;20034;-77
2022/07/17 07:35:46;;;;;;;2.33;1.27;;;30.00;46.10;;;;;;4814169;29;20069;-77
2022/07/17 07:38:13;;;;;;;1.92;1.55;;;29.90;46.10;;;;;;4812885;29;20035;-79
2022/07/17 07:40:39;;;;;;;2.10;1.77;;;29.80;46.30;;;;;;4812918;29;20034;-77
2022/07/17 07:43:05;;;;;;;4.53;2.30;;;29.80;46.40;;;;;;4799729;29;20058;-77
2022/07/17 07:45:31;;;;;;;4.40;2.03;;;29.80;46.40;;;;;;4815999;29;20089;-77
2022/07/17 07:47:57;;;;;;;2.90;1.45;;;29.90;46.00;;;;;;4816103;29;20072;-77
2022/07/17 07:50:25;;;;;;;3.05;2.10;;;30.30;45.40;;;;;;4815751;29;20050;-77
2022/07/17 07:52:51;;;;;;;4.18;1.85;;;30.70;44.70;;;;;;4816227;29;20042;-77
2022/07/17 07:55:18;;;;;;;4.07;2.20;;;31.00;44.00;;;;;;4814159;29;20720;-78
2022/07/17 07:57:44;;;;;;;2.30;1.77;;;31.30;43.40;;;;;;4801872;29;20040;-80
2022/07/17 08:00:11;;;;;;;5.78;2.60;;;31.60;42.80;;;;;;4816299;29;20038;-80
2022/07/17 08:02:41;;;;;;;5.65;1.92;;;31.90;42.50;;;;;;4815753;29;20041;-79
2022/07/17 08:05:07;;;;;;;3.63;1.92;;;31.90;42.20;;;;;;4816782;29;20041;-79
2022/07/17 08:07:35;;;;;;;5.95;2.28;;;31.90;42.20;;;;;;4816887;29;20068;-75
2022/07/17 08:10:01;;;;;;;3.75;1.80;;;31.90;42.40;;;;;;4815608;29;20039;-79
2022/07/17 08:12:27;;;;;;;2.65;2.10;;;31.70;42.60;;;;;;4818730;29;20038;-79
2022/07/17 08:14:53;;;;;;;4.38;1.63;;;31.60;42.70;;;;;;4819566;29;20078;-78
2022/07/17 08:17:20;;;;;;;2.13;1.58;;;31.60;42.80;;;;;;4819805;29;20056;-79
2022/07/17 08:19:46;;;;;;;3.53;2.17;;;31.40;42.80;;;;;;4819091;29;20041;-78
2022/07/17 08:22:12;;;;;;;5.90;2.00;;;31.30;42.90;;;;;;4816903;29;20035;-77
2022/07/17 08:24:38;;;;;;;2.35;2.08;;;31.30;43.10;;;;;;4815890;29;20427;-78
2022/07/17 08:27:04;;;;;;;3.60;2.40;;;31.20;43.10;;;;;;4814300;29;20489;-78
2022/07/17 08:29:30;;;;;;;4.07;1.85;;;31.20;43.00;;;;;;4814129;29;20207;-79
2022/07/17 08:31:56;;;;;;;2.38;1.52;;;31.20;43.00;;;;;;4797790;29;20050;-77
2022/07/17 08:34:22;;;;;;;3.17;1.70;;;31.10;42.90;;;;;;4815353;29;20486;-78
2022/07/17 08:36:48;;;;;;;3.42;1.70;;;31.10;43.00;;;;;;4782433;29;20496;-77
2022/07/17 08:39:14;;;;;;;4.63;2.13;;;31.10;43.00;;;;;;4813786;29;20050;-77
2022/07/17 08:41:40;;;;;;;4.07;1.60;;;31.00;43.00;;;;;;4812553;29;20027;-77
2022/07/17 08:44:07;;;;;;;6.60;1.90;;;30.90;43.10;;;;;;4813933;29;20047;-78
2022/07/17 08:46:38;;;;;;;3.97;1.70;;;30.80;43.20;;;;;;4814582;29;20266;-77
2022/07/17 08:49:05;;;;;;;1.50;1.40;;;30.70;43.20;;;;;;4812459;29;20042;-78
2022/07/17 08:51:32;;;;;;;1.90;1.42;;;30.70;43.20;;;;;;4814412;29;20086;-78
2022/07/17 08:53:58;;;;;;;2.60;1.50;;;30.70;42.90;;;;;;4797579;29;20030;-78
2022/07/17 08:56:26;;;;;;;2.25;1.52;;;30.80;42.80;;;;;;4812693;29;20085;-78
2022/07/17 08:58:52;;;;;;;2.60;1.83;;;30.90;42.70;;;;;;4798542;29;20328;-78
2022/07/17 09:01:19;;;;;;;5.82;1.70;;;30.90;42.40;;;;;;4814171;29;20042;-79
2022/07/17 09:04:00;;;;;;;5.88;2.00;;;31.00;42.10;;;;;;4814474;29;20042;-79
2022/07/17 09:06:27;;;;;;;4.32;1.60;;;31.10;41.70;;;;;;4813682;29;20399;-79
2022/07/17 09:09:12;;;;;;;3.13;1.58;;;31.20;41.60;;;;;;4813006;29;20053;-78
2022/07/17 09:11:45;;;;;;;2.60;1.52;;;31.30;41.30;;;;;;4811688;29;20504;-78
2022/07/17 09:14:11;;;;;;;2.72;1.98;;;31.40;41.10;;;;;;4814818;29;20081;-84
2022/07/17 09:16:50;;;;;;;6.13;2.83;;;31.50;41.00;;;;;;4783134;29;20091;-83
2022/07/17 09:19:30;;;;;;;5.78;2.00;;;31.60;40.70;;;;;;4796798;29;20083;-82
2022/07/17 09:22:11;;;;;;;3.35;2.05;;;31.70;40.50;;;;;;4809787;29;20118;-79
2022/07/17 09:24:45;;;;;;;2.33;1.77;;;31.80;40.30;;;;;;4809801;29;20041;-79
2022/07/17 09:27:14;;;;;;;2.60;1.48;;;31.90;40.20;;;;;;4812377;29;20042;-78
2022/07/17 09:29:54;;;;;;;2.08;1.88;;;32.00;40.00;;;;;;4797423;29;20034;-77
2022/07/17 09:32:21;;;;;;;3.05;1.60;;;32.00;39.70;;;;;;4813025;29;20499;-78
2022/07/17 09:34:50;;;;;;;2.20;1.90;;;32.10;39.70;;;;;;4811573;29;20079;-79
2022/07/17 09:37:17;;;;;;;4.35;1.83;;;32.10;39.40;;;;;;4811575;29;20141;-81
2022/07/17 09:39:43;;;;;;;2.97;2.00;;;32.20;39.40;;;;;;4809814;29;20041;-85
2022/07/17 09:42:20;;;;;;;2.58;2.30;;;32.20;39.20;;;;;;4811803;29;20045;-81
2022/07/17 09:45:08;;;;;;;2.55;1.80;;;32.30;39.10;;;;;;4815468;29;20045;-81
2022/07/17 09:47:36;;;;;;;1.75;1.58;;;32.40;38.70;;;;;;4797091;29;20038;-82
2022/07/17 09:50:04;;;;;;;3.22;1.75;;;32.50;38.70;;;;;;4794041;29;20042;-80
2022/07/17 09:52:33;;;;;;;1.60;1.50;;;32.60;38.50;;;;;;4811994;29;20038;-80
2022/07/17 09:55:00;;;;;;;3.63;1.80;;;32.70;38.40;;;;;;4792863;29;20186;-79
2022/07/17 09:57:29;;;;;;;4.40;2.10;;;32.80;38.40;;;;;;4817323;29;20396;-78
2022/07/17 09:59:58;;;;;;;5.35;2.13;;;32.90;38.30;;;;;;4818140;29;20051;-78
2022/07/17 10:02:24;;;;;;;3.38;1.95;;;33.00;38.10;;;;;;4820025;29;20029;-79
2022/07/17 10:04:52;;;;;;;2.17;1.58;;;33.10;38.00;;;;;;4819288;29;20023;-79
2022/07/17 10:07:18;;;;;;;3.13;1.52;;;33.20;37.90;;;;;;4818781;29;20072;-78
2022/07/17 10:09:46;;;;;;;3.83;1.67;;;33.30;37.80;;;;;;4800105;29;20042;-78
2022/07/17 10:12:14;;;;;;;3.97;1.60;;;33.50;37.90;;;;;;4818940;29;20121;-78
2022/07/17 10:14:41;;;;;;;2.22;1.92;;;33.70;37.80;;;;;;4817866;29;20082;-77
2022/07/17 10:17:09;;;;;;;2.85;1.33;;;33.90;37.80;;;;;;4819723;29;20118;-78
2022/07/17 10:19:52;;;;;;;2.20;1.50;;;34.00;37.60;;;;;;4813126;29;20099;-78
2022/07/17 10:22:19;;;;;;;8.65;1.95;;;34.10;37.40;;;;;;4818675;29;20083;-77
2022/07/17 10:24:53;;;;;;;3.58;1.60;;;34.20;37.40;;;;;;4816240;29;20042;-79
2022/07/17 10:27:25;;;;;;;2.78;1.55;;;34.30;37.10;;;;;;4819422;29;20165;-80
2022/07/17 10:30:13;;;;;;;3.05;1.55;;;34.40;37.10;;;;;;4821425;29;20030;-79
2022/07/17 10:32:50;;;;;;;6.00;1.80;;;34.40;36.70;;;;;;4818089;29;20034;-79
2022/07/17 10:35:16;;;;;;;4.97;1.70;;;34.50;36.90;;;;;;4816907;29;20045;-80
2022/07/17 10:37:42;;;;;;;1.92;1.42;;;34.60;36.80;;;;;;4816551;29;20046;-79
2022/07/17 10:40:19;;;;;;;4.78;2.50;;;34.60;36.60;;;;;;4813141;29;20123;-79
2022/07/17 10:42:57;;;;;;;2.63;1.50;;;34.60;36.40;;;;;;4816286;29;20336;-79
2022/07/17 10:45:24;;;;;;;2.95;2.40;;;34.70;36.30;;;;;;4815864;29;20034;-79
2022/07/17 10:48:00;;;;;;;2.60;1.67;;;34.70;36.30;;;;;;4814713;29;20419;-82
2022/07/17 10:50:35;;;;;;;2.17;1.70;;;34.80;36.10;;;;;;4816806;29;20043;-79
2022/07/17 10:53:07;;;;;;;3.80;1.95;;;34.90;36.00;;;;;;4817344;29;20955;-80
2022/07/17 10:55:36;;;;;;;1.75;1.42;;;35.00;35.90;;;;;;4814926;29;20023;-78
2022/07/17 10:58:03;;;;;;;3.28;1.77;;;35.10;35.80;;;;;;4816124;29;20031;-78
2022/07/17 11:00:29;;;;;;;3.63;1.60;;;35.20;35.80;;;;;;4815553;29;20034;-79
2022/07/17 11:02:55;;;;;;;4.55;1.67;;;35.20;35.60;;;;;;4799320;29;20543;-79
2022/07/17 11:05:22;;;;;;;3.47;2.03;;;35.30;35.50;;;;;;4816078;29;20557;-79
2022/07/17 11:07:56;;;;;;;2.00;1.67;;;35.20;35.30;;;;;;4798834;29;20066;-78
2022/07/17 11:10:27;;;;;;;3.58;1.58;;;35.20;35.30;;;;;;4813720;29;20065;-78
2022/07/17 11:12:55;;;;;;;3.03;1.77;;;35.30;35.60;;;;;;4814132;29;20034;-80
2022/07/17 11:15:22;;;;;;;1.48;1.38;;;35.30;36.40;;;;;;4813843;29;20485;-78
2022/07/17 11:17:49;;;;;;;2.47;1.80;;;35.20;35.60;;;;;;4815213;29;20221;-78
2022/07/17 11:20:16;;;;;;;6.40;1.65;;;35.20;35.60;;;;;;4812915;29;20030;-78
2022/07/17 11:22:42;;;;;;;3.22;1.63;;;35.10;35.50;;;;;;4814360;29;20465;-77
2022/07/17 11:25:11;;;;;;;3.05;1.98;;;35.20;35.40;;;;;;4812959;29;20545;-75
2022/07/17 11:27:38;;;;;;;4.20;1.60;;;35.20;35.20;;;;;;4814089;29;20046;-78
2022/07/17 11:30:05;;;;;;;4.55;2.05;;;35.40;35.30;;;;;;4808570;29;20065;-75
2022/07/17 11:32:37;;;;;;;5.00;1.50;;;35.40;35.20;;;;;;4813841;29;20107;-75
2022/07/17 11:35:18;;;;;;;5.10;1.65;;;35.50;35.10;;;;;;4811984;29;20035;-75
2022/07/17 11:37:44;;;;;;;3.28;1.85;;;35.60;34.90;;;;;;4812063;29;20055;-74
2022/07/17 11:40:10;;;;;;;4.32;1.77;;;35.70;34.80;;;;;;4811252;29;20149;-78
2022/07/17 11:42:36;;;;;;;2.10;1.40;;;35.80;34.60;;;;;;4810813;29;20617;-78
2022/07/17 11:45:02;;;;;;;2.92;1.77;;;35.90;35.10;;;;;;4797652;29;20037;-75
2022/07/17 11:47:28;;;;;;;2.70;1.67;;;36.00;34.30;;;;;;4813959;29;20121;-76
2022/07/17 11:50:12;;;;;;;1.58;1.40;;;36.10;34.20;;;;;;4813017;29;20049;-75
2022/07/17 11:52:41;;;;;;;2.90;1.88;;;36.20;33.70;;;;;;4812872;29;20125;-74
2022/07/17 11:55:08;;;;;;;5.32;1.95;;;36.40;33.80;;;;;;4811548;29;20934;-74
2022/07/17 11:57:43;;;;;;;3.63;1.60;;;36.50;33.60;;;;;;4809826;29;20141;-77
2022/07/17 12:00:10;;;;;;;2.80;1.55;;;36.50;33.30;;;;;;4799417;29;20027;-78
2022/07/17 12:02:37;;;;;;;3.13;1.80;;;36.50;33.30;;;;;;4814007;29;20260;-78
2022/07/17 12:05:03;;;;;;;3.60;2.30;;;36.40;33.20;;;;;;4796408;29;20489;-78
2022/07/17 12:07:46;;;;;;;3.92;2.00;;;36.40;33.20;;;;;;4811352;29;20340;-79
2022/07/17 12:10:13;;;;;;;4.10;1.90;;;36.40;33.00;;;;;;4812851;29;20050;-76
2022/07/17 12:12:39;;;;;;;1.73;1.63;;;36.50;33.10;;;;;;4812470;29;20082;-82
2022/07/17 12:15:06;;;;;;;3.35;1.60;;;36.50;33.00;;;;;;4798285;29;20049;-82
2022/07/17 12:17:39;;;;;;;2.25;1.58;;;36.60;32.90;;;;;;4815399;29;20079;-80
2022/07/17 12:20:08;;;;;;;1.63;1.48;;;36.60;33.30;;;;;;4798390;29;20094;-79
2022/07/17 12:22:44;;;;;;;3.38;2.33;;;36.60;32.60;;;;;;4813387;29;20034;-78
2022/07/17 12:25:20;;;;;;;5.80;1.77;;;36.60;32.40;;;;;;4814757;29;20030;-85
2022/07/17 12:27:46;;;;;;;2.92;1.40;;;36.60;32.80;;;;;;4811733;29;20064;-77
2022/07/17 12:30:12;;;;;;;3.95;2.17;;;36.60;32.80;;;;;;4799371;29;20051;-77
2022/07/17 12:32:41;;;;;;;9.35;1.73;;;36.60;32.80;;;;;;4815037;29;20034;-76
2022/07/17 12:35:08;;;;;;;4.07;1.90;;;36.60;32.60;;;;;;4815673;29;20037;-77
2022/07/17 12:37:34;;;;;;;3.15;1.77;;;36.60;32.50;;;;;;4820939;29;20050;-76
2022/07/17 12:40:00;;;;;;;2.55;1.50;;;36.60;32.40;;;;;;4820393;29;20062;-76
2022/07/17 12:42:26;;;;;;;5.07;2.08;;;36.70;32.20;;;;;;4824791;29;20119;-76
2022/07/17 12:44:52;;;;;;;3.38;1.60;;;36.80;32.10;;;;;;4824222;29;20045;-77
2022/07/17 12:47:18;;;;;;;2.40;1.48;;;36.90;32.00;;;;;;4807673;29;20068;-77
2022/07/17 12:49:43;;;;;;;5.68;1.90;;;36.90;31.80;;;;;;4818647;29;20167;-76